Airfield :
LOGIN :

Register | Disclaimer

   EN    FR    IT 

 










Legend :    VFR   Marginal VFR   IFR   Intensive IFR   Very Intensive IFR
Visi :
Ceiling :
>= 8 km
>= 3000ft
5 to 8 km
1000 to 3000 ft
1500m to 5 km
500 to 1000 ft
800 to 1500m
200 to 500 ft
< 800m
< 200 ft
Symbols :   Thunderstorms  Fog  Heavy snow  Heavy precipitations  Wind > 20 kt
SIGMETs :     Misc.  Thunderstorms  Icing  Turbulence  Mountain Waves  Volcanic Ashes






- Airport Elevation : 359 ft
- IATA code : DEB


LHDC - Debrecen

CURRENT METAR :
  • 250215Z AUTO 02013KT 350V050 CAVOK 17/13 Q1015 NOSIG

EXPIRED METARs :
  • 250145Z AUTO 03011KT 360V060 CAVOK 17/13 Q1015 NOSIG
  • 250115Z AUTO 02010KT CAVOK 17/13 Q1016 NOSIG
  • 250045Z AUTO 02011KT CAVOK 18/13 Q1016 NOSIG
  • 250015Z AUTO 02011KT 350V050 CAVOK 18/13 Q1016 NOSIG
  • 242345Z AUTO 02013KT CAVOK 19/12 Q1016 NOSIG
  • 242315Z AUTO 02012KT CAVOK 19/13 Q1016 NOSIG
  • 242245Z AUTO 02011KT 350V050 CAVOK 19/13 Q1017 NOSIG
  • 242215Z AUTO 02011KT 340V050 CAVOK 20/13 Q1016 NOSIG
  • 242145Z AUTO 02013KT 340V040 CAVOK 20/13 Q1016 NOSIG

TAF TAF LHDC
Valid from the 25 at 03:00 until the 25 at 12:00 UTC


250215Z 2503/2512 03012KT CAVOK



MET'MAP, your aeronautical weather chart ! - Copyright ORBIFLY December 2007 - Disclaimer

ORBIFLY MET'MAP TEAM :

Programming & Development : Alexandra Zaïnal
Original concept : Baudouin d'Aumeries
Technical & hardware support : Manuel Goepfert
Assistance : Marc-Olivier Méhu




SOURCES & CREDITS :

   NOAA